Time,TemperatureF,DewpointF,PressureIn,WindDirection,WindDirectionDegrees,WindSpeedMPH,WindSpeedGustMPH,Humidity,HourlyPrecipIn,Conditions,Clouds,dailyrainin,SoftwareType,DateUTC
2013-03-03 00:00:00,44.5,34.2,30.01,South,173,1.0,1.0,67,0.00,,,0.00,Wunderground v.1.15,2013-03-03 05:00:00,
2013-03-03 00:05:00,44.2,33.9,30.01,North,360,1.0,1.0,67,0.00,,,0.00,Wunderground v.1.15,2013-03-03 05:05:00,
2013-03-03 00:10:00,43.9,33.6,30.01,NW,326,1.0,1.0,67,0.00,,,0.00,Wunderground v.1.15,2013-03-03 05:10:00,
2013-03-03 00:15:00,43.7,33.8,30.02,ESE,115,1.0,1.0,68,0.00,,,0.00,Wunderground v.1.15,2013-03-03 05:15:00,
2013-03-03 00:20:00,43.6,33.7,30.02,NNE,26,0.0,0.0,68,0.00,,,0.00,Wunderground v.1.15,2013-03-03 05:20:00,
2013-03-03 00:25:00,43.4,32.8,30.01,WSW,257,1.0,1.0,66,0.00,,,0.00,Wunderground v.1.15,2013-03-03 05:25:00,
2013-03-03 00:30:00,43.3,33.1,30.01,SE,130,0.0,0.0,67,0.00,,,0.00,Wunderground v.1.15,2013-03-03 05:30:00,
2013-03-03 00:35:00,43.2,33.3,30.01,SSW,209,0.0,0.0,68,0.00,,,0.00,Wunderground v.1.15,2013-03-03 05:35:00,
2013-03-03 00:41:00,43.0,33.2,30.01,NW,309,0.0,0.0,68,0.00,,,0.00,Wunderground v.1.15,2013-03-03 05:41:00,
2013-03-03 00:50:00,42.8,33.0,30.02,NE,34,0.0,0.0,68,0.00,,,0.00,Wunderground v.1.15,2013-03-03 05:50:00,
2013-03-03 01:00:00,42.8,32.6,30.02,NNW,330,0.0,0.0,67,0.00,,,0.00,Wunderground v.1.15,2013-03-03 06:00:00,
2013-03-03 01:06:00,42.7,32.9,30.02,North,355,0.0,0.0,68,0.00,,,0.00,Wunderground v.1.15,2013-03-03 06:06:00,
2013-03-03 01:11:00,42.7,33.2,30.02,North,360,0.0,0.0,69,0.00,,,0.00,Wunderground v.1.15,2013-03-03 06:11:00,
2013-03-03 01:21:00,42.6,32.8,30.02,NE,50,0.0,0.0,68,0.00,,,0.00,Wunderground v.1.15,2013-03-03 06:21:00,
2013-03-03 01:30:00,42.4,34.0,30.02,North,349,0.0,2.0,72,0.00,,,0.00,Wunderground v.1.15,2013-03-03 06:30:00,
2013-03-03 01:35:00,42.2,32.4,30.01,SSE,168,0.0,2.0,68,0.00,,,0.00,Wunderground v.1.15,2013-03-03 06:35:00,
2013-03-03 01:41:00,42.2,33.1,30.01,NNE,30,0.0,0.0,70,0.00,,,0.00,Wunderground v.1.15,2013-03-03 06:41:00,
2013-03-03 01:50:00,42.0,32.2,30.02,ENE,67,0.0,0.0,68,0.00,,,0.00,Wunderground v.1.15,2013-03-03 06:50:00,
2013-03-03 02:00:00,41.9,32.1,30.01,NNW,336,0.0,0.0,68,0.00,,,0.00,Wunderground v.1.15,2013-03-03 07:00:00,
2013-03-03 02:05:00,41.9,32.5,30.01,West,272,0.0,0.0,69,0.00,,,0.00,Wunderground v.1.15,2013-03-03 07:05:00,
2013-03-03 02:11:00,41.9,33.2,30.01,West,272,0.0,0.0,71,0.00,,,0.00,Wunderground v.1.15,2013-03-03 07:11:00,
2013-03-03 02:20:00,41.7,33.0,30.01,NNW,346,0.0,0.0,71,0.00,,,0.00,Wunderground v.1.15,2013-03-03 07:20:00,
2013-03-03 02:31:00,41.4,33.0,30.01,NNW,346,0.0,0.0,72,0.00,,,0.00,Wunderground v.1.15,2013-03-03 07:31:00,
2013-03-03 02:41:00,41.2,32.9,30.01,North,5,0.0,0.0,72,0.00,,,0.00,Wunderground v.1.15,2013-03-03 07:41:00,
2013-03-03 02:51:00,41.3,31.9,30.00,NNE,27,0.0,0.0,69,0.00,,,0.00,Wunderground v.1.15,2013-03-03 07:51:00,
2013-03-03 03:00:00,41.5,31.7,30.00,NNW,344,0.0,1.0,68,0.00,,,0.00,Wunderground v.1.15,2013-03-03 08:00:00,
2013-03-03 03:05:00,41.4,32.0,29.99,NNW,347,0.0,1.0,69,0.00,,,0.00,Wunderground v.1.15,2013-03-03 08:05:00,
2013-03-03 03:15:00,41.4,32.0,30.00,NNE,26,0.0,0.0,69,0.00,,,0.00,Wunderground v.1.15,2013-03-03 08:15:00,
2013-03-03 03:25:00,41.3,31.5,30.00,SE,140,0.0,0.0,68,0.00,,,0.00,Wunderground v.1.15,2013-03-03 08:25:00,
2013-03-03 03:30:00,41.3,31.5,30.00,SE,140,0.0,0.0,68,0.00,,,0.00,Wunderground v.1.15,2013-03-03 08:30:00,
2013-03-03 03:35:00,41.1,31.3,30.00,SE,139,0.0,0.0,68,0.00,,,0.00,Wunderground v.1.15,2013-03-03 08:35:00,
2013-03-03 03:40:00,41.0,31.6,30.00,SE,139,0.0,0.0,69,0.00,,,0.00,Wunderground v.1.15,2013-03-03 08:40:00,
2013-03-03 03:50:00,40.7,31.3,30.00,SE,139,0.0,0.0,69,0.00,,,0.00,Wunderground v.1.15,2013-03-03 08:50:00,
2013-03-03 04:00:00,40.6,31.6,30.00,SE,139,0.0,0.0,70,0.00,,,0.00,Wunderground v.1.15,2013-03-03 09:00:00,
2013-03-03 04:05:00,40.6,31.6,30.01,SE,139,0.0,0.0,70,0.00,,,0.00,Wunderground v.1.15,2013-03-03 09:05:00,
2013-03-03 04:10:00,40.6,31.6,30.01,West,280,0.0,0.0,70,0.00,,,0.00,Wunderground v.1.15,2013-03-03 09:10:00,
2013-03-03 04:15:00,40.6,31.6,30.01,NNW,342,0.0,0.0,70,0.00,,,0.00,Wunderground v.1.15,2013-03-03 09:15:00,
2013-03-03 04:21:00,40.7,31.3,30.01,NNW,344,0.0,0.0,69,0.00,,,0.00,Wunderground v.1.15,2013-03-03 09:21:00,
2013-03-03 04:31:00,40.6,31.6,30.00,WNW,284,0.0,0.0,70,0.00,,,0.00,Wunderground v.1.15,2013-03-03 09:31:00,
2013-03-03 04:41:00,40.3,31.6,30.00,WNW,284,0.0,0.0,71,0.00,,,0.00,Wunderground v.1.15,2013-03-03 09:41:00,
2013-03-03 04:46:00,40.2,31.5,30.00,WNW,284,0.0,0.0,71,0.00,,,0.00,Wunderground v.1.15,2013-03-03 09:46:00,
2013-03-03 04:56:00,39.8,31.5,30.00,WNW,284,0.0,0.0,72,0.00,,,0.00,Wunderground v.1.15,2013-03-03 09:56:00,
2013-03-03 05:05:00,39.6,31.7,30.00,WNW,284,0.0,0.0,73,0.00,,,0.00,Wunderground v.1.15,2013-03-03 10:05:00,
2013-03-03 05:11:00,39.4,31.5,30.01,WNW,284,0.0,0.0,73,0.00,,,0.00,Wunderground v.1.15,2013-03-03 10:11:00,
2013-03-03 05:21:00,39.2,32.3,30.02,WNW,284,0.0,0.0,76,0.00,,,0.00,Wunderground v.1.15,2013-03-03 10:21:00,
2013-03-03 05:31:00,39.0,32.7,30.02,WNW,284,0.0,0.0,78,0.00,,,0.00,Wunderground v.1.15,2013-03-03 10:31:00,
2013-03-03 05:40:00,38.9,32.6,30.02,WNW,284,0.0,0.0,78,0.00,,,0.00,Wunderground v.1.15,2013-03-03 10:40:00,
2013-03-03 05:46:00,38.9,32.6,30.01,WNW,284,0.0,0.0,78,0.00,,,0.00,Wunderground v.1.15,2013-03-03 10:46:00,
2013-03-03 05:56:00,39.1,32.8,30.01,WNW,284,0.0,0.0,78,0.00,,,0.00,Wunderground v.1.15,2013-03-03 10:56:00,
2013-03-03 06:05:00,39.1,32.8,30.02,WNW,284,0.0,0.0,78,0.00,,,0.00,Wunderground v.1.15,2013-03-03 11:05:00,
2013-03-03 06:11:00,39.1,32.8,30.02,WNW,284,0.0,0.0,78,0.00,,,0.00,Wunderground v.1.15,2013-03-03 11:11:00,
2013-03-03 06:20:00,38.9,32.9,30.02,WNW,284,0.0,0.0,79,0.00,,,0.00,Wunderground v.1.15,2013-03-03 11:20:00,
2013-03-03 06:26:00,38.9,32.9,30.03,WNW,284,0.0,0.0,79,0.00,,,0.00,Wunderground v.1.15,2013-03-03 11:26:00,
2013-03-03 06:36:00,38.7,32.7,30.03,WNW,284,0.0,0.0,79,0.00,,,0.00,Wunderground v.1.15,2013-03-03 11:36:00,
2013-03-03 06:41:00,38.6,32.6,30.03,WNW,284,0.0,0.0,79,0.00,,,0.00,Wunderground v.1.15,2013-03-03 11:41:00,
2013-03-03 06:51:00,38.5,32.6,30.03,WNW,284,0.0,0.0,79,0.00,,,0.00,Wunderground v.1.15,2013-03-03 11:51:00,
2013-03-03 07:01:00,38.6,32.6,30.04,WNW,284,0.0,0.0,79,0.00,,,0.00,Wunderground v.1.15,2013-03-03 12:01:00,
2013-03-03 07:06:00,38.8,32.8,30.04,WNW,286,0.0,0.0,79,0.00,,,0.00,Wunderground v.1.15,2013-03-03 12:06:00,
2013-03-03 07:11:00,38.9,32.6,30.04,WNW,286,0.0,0.0,78,0.00,,,0.00,Wunderground v.1.15,2013-03-03 12:11:00,
2013-03-03 07:20:00,39.3,33.0,30.04,WNW,286,0.0,0.0,78,0.00,,,0.00,Wunderground v.1.15,2013-03-03 12:20:00,
2013-03-03 07:30:00,39.5,32.9,30.05,WNW,286,0.0,0.0,77,0.00,,,0.00,Wunderground v.1.15,2013-03-03 12:30:00,
2013-03-03 07:35:00,39.7,33.1,30.05,WNW,286,0.0,0.0,77,0.00,,,0.00,Wunderground v.1.15,2013-03-03 12:35:00,
2013-03-03 07:41:00,39.9,33.3,30.05,WNW,286,0.0,0.0,77,0.00,,,0.00,Wunderground v.1.15,2013-03-03 12:41:00,
2013-03-03 07:51:00,40.1,33.1,30.05,NE,53,0.0,0.0,76,0.00,,,0.00,Wunderground v.1.15,2013-03-03 12:51:00,
2013-03-03 08:01:00,40.5,33.2,30.05,NW,311,0.0,2.0,75,0.00,,,0.00,Wunderground v.1.15,2013-03-03 13:01:00,
2013-03-03 08:10:00,40.8,33.5,30.05,WNW,300,0.0,0.0,75,0.00,,,0.00,Wunderground v.1.15,2013-03-03 13:10:00,
2013-03-03 08:20:00,41.0,33.0,30.05,North,360,0.0,0.0,73,0.00,,,0.00,Wunderground v.1.15,2013-03-03 13:20:00,
2013-03-03 08:26:00,41.2,33.2,30.05,North,360,0.0,0.0,73,0.00,,,0.00,Wunderground v.1.15,2013-03-03 13:26:00,
2013-03-03 08:45:00,42.1,33.7,30.05,North,360,0.0,0.0,72,0.00,,,0.00,Wunderground v.1.15,2013-03-03 13:45:00,
2013-03-03 08:50:00,42.2,34.2,30.05,North,360,0.0,0.0,73,0.00,,,0.00,Wunderground v.1.15,2013-03-03 13:50:00,
2013-03-03 08:56:00,42.4,34.0,30.05,NNE,29,1.0,1.0,72,0.00,,,0.00,Wunderground v.1.15,2013-03-03 13:56:00,
2013-03-03 09:06:00,43.6,35.2,30.05,NNE,28,0.0,1.0,72,0.00,,,0.00,Wunderground v.1.15,2013-03-03 14:06:00,
2013-03-03 09:11:00,44.4,34.9,30.05,NNE,28,0.0,0.0,69,0.00,,,0.00,Wunderground v.1.15,2013-03-03 14:11:00,
2013-03-03 09:20:00,44.3,34.8,30.06,West,273,1.0,1.0,69,0.00,,,0.00,Wunderground v.1.15,2013-03-03 14:20:00,
2013-03-03 09:25:00,44.4,33.4,30.06,WNW,286,1.0,1.0,65,0.00,,,0.00,Wunderground v.1.15,2013-03-03 14:25:00,
2013-03-03 09:31:00,44.6,33.6,30.06,North,350,1.0,1.0,65,0.00,,,0.00,Wunderground v.1.15,2013-03-03 14:31:00,
2013-03-03 09:40:00,45.4,34.3,30.06,SSE,156,1.0,1.0,65,0.00,,,0.00,Wunderground v.1.15,2013-03-03 14:40:00,
2013-03-03 09:50:00,46.4,33.7,30.06,North,355,1.0,1.0,61,0.00,,,0.00,Wunderground v.1.15,2013-03-03 14:50:00,
2013-03-03 10:00:00,46.5,33.8,30.06,North,5,1.0,1.0,61,0.00,,,0.00,Wunderground v.1.15,2013-03-03 15:00:00,
2013-03-03 10:06:00,46.6,33.0,30.06,NW,304,0.0,1.0,59,0.00,,,0.00,Wunderground v.1.15,2013-03-03 15:06:00,
2013-03-03 10:11:00,46.9,33.7,30.06,WNW,294,0.0,2.0,60,0.00,,,0.00,Wunderground v.1.15,2013-03-03 15:11:00,
2013-03-03 10:20:00,47.7,33.2,30.06,NW,315,1.0,1.0,57,0.00,,,0.00,Wunderground v.1.15,2013-03-03 15:20:00,
2013-03-03 10:30:00,48.3,32.4,30.06,West,280,1.0,2.0,54,0.00,,,0.00,Wunderground v.1.15,2013-03-03 15:30:00,
2013-03-03 10:40:00,48.3,32.9,30.05,WNW,294,1.0,1.0,55,0.00,,,0.00,Wunderground v.1.15,2013-03-03 15:40:00,
2013-03-03 10:45:00,48.7,32.8,30.06,NW,311,1.0,1.0,54,0.00,,,0.00,Wunderground v.1.15,2013-03-03 15:45:00,
2013-03-03 10:51:00,48.7,32.3,30.06,WNW,287,1.0,1.0,53,0.00,,,0.00,Wunderground v.1.15,2013-03-03 15:51:00,
2013-03-03 11:00:00,49.6,32.7,30.05,West,281,1.0,1.0,52,0.00,,,0.00,Wunderground v.1.15,2013-03-03 16:00:00,
2013-03-03 11:10:00,49.6,32.2,30.05,West,277,1.0,1.0,51,0.00,,,0.00,Wunderground v.1.15,2013-03-03 16:10:00,
2013-03-03 11:16:00,49.8,32.9,30.05,NW,312,1.0,1.0,52,0.00,,,0.00,Wunderground v.1.15,2013-03-03 16:16:00,
2013-03-03 11:25:00,49.9,33.4,30.06,NW,320,1.0,5.0,53,0.00,,,0.00,Wunderground v.1.15,2013-03-03 16:25:00,
2013-03-03 11:31:00,50.1,33.1,30.06,West,275,0.0,3.0,52,0.00,,,0.00,Wunderground v.1.15,2013-03-03 16:31:00,
2013-03-03 11:40:00,49.6,32.7,30.06,West,267,2.0,3.0,52,0.00,,,0.00,Wunderground v.1.15,2013-03-03 16:40:00,
2013-03-03 11:50:00,50.1,34.1,30.05,West,269,1.0,5.0,54,0.00,,,0.00,Wunderground v.1.15,2013-03-03 16:50:00,
2013-03-03 11:56:00,50.1,32.2,30.05,West,281,1.0,5.0,50,0.00,,,0.00,Wunderground v.1.15,2013-03-03 16:56:00,
2013-03-03 12:05:00,50.2,32.8,30.05,West,277,1.0,3.0,51,0.00,,,0.00,Wunderground v.1.15,2013-03-03 17:05:00,
2013-03-03 12:10:00,50.8,32.8,30.04,WNW,294,2.0,2.0,50,0.00,,,0.00,Wunderground v.1.15,2013-03-03 17:10:00,
2013-03-03 12:20:00,50.9,33.4,30.04,NNW,341,1.0,8.0,51,0.00,,,0.00,Wunderground v.1.15,2013-03-03 17:20:00,
2013-03-03 12:30:00,51.7,33.6,30.03,West,263,1.0,1.0,50,0.00,,,0.00,Wunderground v.1.15,2013-03-03 17:30:00,
2013-03-03 12:36:00,52.5,33.9,30.03,WNW,294,1.0,4.0,49,0.00,,,0.00,Wunderground v.1.15,2013-03-03 17:36:00,
2013-03-03 12:45:00,52.6,34.0,30.02,WNW,283,2.0,2.0,49,0.00,,,0.00,Wunderground v.1.15,2013-03-03 17:45:00,
2013-03-03 12:51:00,53.0,33.8,30.02,West,262,1.0,4.0,48,0.00,,,0.00,Wunderground v.1.15,2013-03-03 17:51:00,
2013-03-03 13:00:00,52.9,33.7,30.01,SSW,213,2.0,2.0,48,0.00,,,0.00,Wunderground v.1.15,2013-03-03 18:00:00,
2013-03-03 13:10:00,53.0,34.3,30.02,North,11,2.0,2.0,49,0.00,,,0.00,Wunderground v.1.15,2013-03-03 18:10:00,
2013-03-03 13:16:00,53.5,33.7,30.01,NW,306,2.0,5.0,47,0.00,,,0.00,Wunderground v.1.15,2013-03-03 18:16:00,
2013-03-03 13:25:00,52.6,33.5,30.01,WNW,285,2.0,2.0,48,0.00,,,0.00,Wunderground v.1.15,2013-03-03 18:25:00,
2013-03-03 13:31:00,52.4,33.8,30.01,West,271,2.0,2.0,49,0.00,,,0.00,Wunderground v.1.15,2013-03-03 18:31:00,
2013-03-03 13:40:00,52.7,33.5,30.01,West,264,3.0,3.0,48,0.00,,,0.00,Wunderground v.1.15,2013-03-03 18:40:00,
2013-03-03 13:50:00,54.1,34.8,30.01,SW,227,1.0,1.0,48,0.00,,,0.00,Wunderground v.1.15,2013-03-03 18:50:00,
2013-03-03 13:56:00,53.2,34.5,30.00,WSW,247,2.0,2.0,49,0.00,,,0.00,Wunderground v.1.15,2013-03-03 18:56:00,
2013-03-03 14:05:00,52.4,33.8,30.01,WNW,286,1.0,3.0,49,0.00,,,0.00,Wunderground v.1.15,2013-03-03 19:05:00,
2013-03-03 14:10:00,52.0,33.9,30.00,WSW,238,1.0,1.0,50,0.00,,,0.00,Wunderground v.1.15,2013-03-03 19:10:00,
2013-03-03 14:20:00,51.8,34.2,30.00,WNW,296,1.0,4.0,51,0.00,,,0.00,Wunderground v.1.15,2013-03-03 19:20:00,
2013-03-03 14:26:00,52.2,34.1,30.00,West,279,1.0,4.0,50,0.00,,,0.00,Wunderground v.1.15,2013-03-03 19:26:00,
2013-03-03 14:36:00,51.6,33.6,30.00,SSW,192,2.0,2.0,50,0.00,,,0.00,Wunderground v.1.15,2013-03-03 19:36:00,
2013-03-03 14:45:00,51.5,33.5,30.00,SSE,148,2.0,2.0,50,0.00,,,0.00,Wunderground v.1.15,2013-03-03 19:45:00,
2013-03-03 14:51:00,51.3,34.3,30.00,North,360,1.0,1.0,52,0.00,,,0.00,Wunderground v.1.15,2013-03-03 19:51:00,
2013-03-03 15:00:00,51.7,34.6,30.00,WSW,257,1.0,1.0,52,0.00,,,0.00,Wunderground v.1.15,2013-03-03 20:00:00,
2013-03-03 15:10:00,52.4,34.8,30.00,West,271,1.0,3.0,51,0.00,,,0.00,Wunderground v.1.15,2013-03-03 20:10:00,
2013-03-03 15:16:00,52.3,33.7,30.00,NNW,344,1.0,8.0,49,0.00,,,0.00,Wunderground v.1.15,2013-03-03 20:16:00,
2013-03-03 15:25:00,51.1,33.6,30.01,SSW,192,1.0,4.0,51,0.00,,,0.00,Wunderground v.1.15,2013-03-03 20:25:00,
2013-03-03 15:30:00,51.0,34.0,30.01,West,280,1.0,1.0,52,0.00,,,0.00,Wunderground v.1.15,2013-03-03 20:30:00,
2013-03-03 15:40:00,51.9,34.3,30.01,West,271,2.0,3.0,51,0.00,,,0.00,Wunderground v.1.15,2013-03-03 20:40:00,
2013-03-03 15:46:00,52.2,34.1,30.01,WSW,257,1.0,3.0,50,0.00,,,0.00,Wunderground v.1.15,2013-03-03 20:46:00,
2013-03-03 15:56:00,51.9,33.8,30.01,WNW,284,1.0,1.0,50,0.00,,,0.00,Wunderground v.1.15,2013-03-03 20:56:00,
2013-03-03 16:05:00,50.8,32.8,30.01,SW,219,2.0,2.0,50,0.00,,,0.00,Wunderground v.1.15,2013-03-03 21:05:00,
2013-03-03 16:10:00,50.7,33.2,30.01,West,278,1.0,1.0,51,0.00,,,0.00,Wunderground v.1.15,2013-03-03 21:10:00,
2013-03-03 16:20:00,50.3,33.3,30.01,WNW,303,1.0,1.0,52,0.00,,,0.00,Wunderground v.1.15,2013-03-03 21:20:00,
2013-03-03 16:26:00,50.0,33.1,30.01,WNW,292,1.0,1.0,52,0.00,,,0.00,Wunderground v.1.15,2013-03-03 21:26:00,
2013-03-03 16:35:00,49.5,33.1,30.01,WNW,287,2.0,2.0,53,0.00,,,0.00,Wunderground v.1.15,2013-03-03 21:35:00,
2013-03-03 16:40:00,49.3,32.9,30.01,West,270,2.0,2.0,53,0.00,,,0.00,Wunderground v.1.15,2013-03-03 21:40:00,
2013-03-03 16:50:00,49.2,32.8,30.01,West,278,2.0,2.0,53,0.00,,,0.00,Wunderground v.1.15,2013-03-03 21:50:00,
2013-03-03 17:00:00,49.5,34.0,30.01,WNW,288,1.0,1.0,55,0.00,,,0.00,Wunderground v.1.15,2013-03-03 22:00:00,
2013-03-03 17:06:00,49.6,34.1,30.01,WNW,292,1.0,1.0,55,0.00,,,0.00,Wunderground v.1.15,2013-03-03 22:06:00,
2013-03-03 17:11:00,49.6,33.6,30.02,WNW,295,1.0,1.0,54,0.00,,,0.00,Wunderground v.1.15,2013-03-03 22:11:00,
2013-03-03 17:21:00,49.4,33.9,30.02,West,277,1.0,1.0,55,0.00,,,0.00,Wunderground v.1.15,2013-03-03 22:21:00,
2013-03-03 17:30:00,49.4,33.9,30.02,West,267,1.0,1.0,55,0.00,,,0.00,Wunderground v.1.15,2013-03-03 22:30:00,
2013-03-03 17:40:00,48.9,34.3,30.03,West,279,1.0,1.0,57,0.00,,,0.00,Wunderground v.1.15,2013-03-03 22:40:00,
2013-03-03 17:46:00,48.8,34.7,30.03,West,267,0.0,1.0,58,0.00,,,0.00,Wunderground v.1.15,2013-03-03 22:46:00,
2013-03-03 17:56:00,48.6,34.5,30.03,West,278,0.0,0.0,58,0.00,,,0.00,Wunderground v.1.15,2013-03-03 22:56:00,
2013-03-03 18:05:00,48.5,34.4,30.03,WNW,301,0.0,1.0,58,0.00,,,0.00,Wunderground v.1.15,2013-03-03 23:05:00,
2013-03-03 18:10:00,48.2,34.5,30.03,West,266,0.0,0.0,59,0.00,,,0.00,Wunderground v.1.15,2013-03-03 23:10:00,
2013-03-03 18:20:00,47.7,34.1,30.04,WNW,284,0.0,0.0,59,0.00,,,0.00,Wunderground v.1.15,2013-03-03 23:20:00,
2013-03-03 18:26:00,47.6,34.0,30.04,WNW,286,0.0,0.0,59,0.00,,,0.00,Wunderground v.1.15,2013-03-03 23:26:00,
2013-03-03 18:31:00,47.4,34.2,30.04,WNW,298,0.0,2.0,60,0.00,,,0.00,Wunderground v.1.15,2013-03-03 23:31:00,
2013-03-03 18:41:00,47.1,34.3,30.04,WNW,287,0.0,0.0,61,0.00,,,0.00,Wunderground v.1.15,2013-03-03 23:41:00,
2013-03-03 18:50:00,46.8,34.5,30.05,WNW,300,0.0,0.0,62,0.00,,,0.00,Wunderground v.1.15,2013-03-03 23:50:00,
2013-03-03 19:00:00,46.5,34.2,30.06,NW,315,0.0,0.0,62,0.00,,,0.00,Wunderground v.1.15,2013-03-04 00:00:00,
2013-03-03 19:10:00,46.2,33.9,30.07,NW,312,0.0,0.0,62,0.00,,,0.00,Wunderground v.1.15,2013-03-04 00:10:00,
2013-03-03 19:16:00,46.0,33.7,30.07,NW,307,0.0,0.0,62,0.00,,,0.00,Wunderground v.1.15,2013-03-04 00:16:00,
2013-03-03 19:25:00,45.7,33.8,30.07,NNW,333,0.0,0.0,63,0.00,,,0.00,Wunderground v.1.15,2013-03-04 00:25:00,
2013-03-03 19:31:00,45.5,34.0,30.08,NW,307,0.0,0.0,64,0.00,,,0.00,Wunderground v.1.15,2013-03-04 00:31:00,
2013-03-03 19:40:00,45.2,33.7,30.08,WNW,283,0.0,0.0,64,0.00,,,0.00,Wunderground v.1.15,2013-03-04 00:40:00,
2013-03-03 19:50:00,44.9,33.5,30.08,WNW,284,0.0,0.0,64,0.00,,,0.00,Wunderground v.1.15,2013-03-04 00:50:00,
2013-03-03 19:56:00,44.8,33.4,30.09,NNW,332,0.0,0.0,64,0.00,,,0.00,Wunderground v.1.15,2013-03-04 00:56:00,
2013-03-03 20:05:00,44.5,33.5,30.10,NW,309,0.0,0.0,65,0.00,,,0.00,Wunderground v.1.15,2013-03-04 01:05:00,
2013-03-03 20:10:00,44.4,33.4,30.10,WNW,302,0.0,0.0,65,0.00,,,0.00,Wunderground v.1.15,2013-03-04 01:10:00,
2013-03-03 20:20:00,44.2,33.2,30.10,WNW,303,0.0,0.0,65,0.00,,,0.00,Wunderground v.1.15,2013-03-04 01:20:00,
2013-03-03 20:30:00,44.0,33.4,30.10,NW,321,0.0,0.0,66,0.00,,,0.00,Wunderground v.1.15,2013-03-04 01:30:00,
2013-03-03 20:36:00,43.9,33.6,30.10,NW,321,0.0,0.0,67,0.00,,,0.00,Wunderground v.1.15,2013-03-04 01:36:00,
2013-03-03 20:41:00,43.8,33.6,30.11,NW,321,0.0,0.0,67,0.00,,,0.00,Wunderground v.1.15,2013-03-04 01:41:00,
2013-03-03 20:50:00,43.6,33.7,30.11,NW,321,0.0,0.0,68,0.00,,,0.00,Wunderground v.1.15,2013-03-04 01:50:00,
2013-03-03 21:00:00,43.4,33.9,30.11,NW,308,0.0,0.0,69,0.00,,,0.00,Wunderground v.1.15,2013-03-04 02:00:00,
2013-03-03 21:10:00,43.2,33.3,30.12,NW,315,0.0,0.0,68,0.00,,,0.00,Wunderground v.1.15,2013-03-04 02:10:00,
2013-03-03 21:16:00,43.2,33.7,30.12,NW,314,0.0,0.0,69,0.00,,,0.00,Wunderground v.1.15,2013-03-04 02:16:00,
2013-03-03 21:25:00,43.1,33.6,30.12,WNW,288,0.0,0.0,69,0.00,,,0.00,Wunderground v.1.15,2013-03-04 02:25:00,
2013-03-03 21:35:00,42.9,33.8,30.13,WNW,288,0.0,0.0,70,0.00,,,0.00,Wunderground v.1.15,2013-03-04 02:35:00,
2013-03-03 21:40:00,42.8,33.7,30.13,WNW,290,0.0,0.0,70,0.00,,,0.00,Wunderground v.1.15,2013-03-04 02:40:00,
2013-03-03 21:50:00,42.5,33.4,30.13,WNW,290,0.0,0.0,70,0.00,,,0.00,Wunderground v.1.15,2013-03-04 02:50:00,
2013-03-03 21:56:00,42.5,33.4,30.14,WNW,289,0.0,0.0,70,0.00,,,0.00,Wunderground v.1.15,2013-03-04 02:56:00,
2013-03-03 22:06:00,42.3,33.2,30.14,WNW,300,0.0,0.0,70,0.00,,,0.00,Wunderground v.1.15,2013-03-04 03:06:00,
2013-03-03 22:15:00,42.1,33.4,30.14,WNW,300,0.0,0.0,71,0.00,,,0.00,Wunderground v.1.15,2013-03-04 03:15:00,
2013-03-03 22:20:00,42.0,33.3,30.15,WNW,300,0.0,0.0,71,0.00,,,0.00,Wunderground v.1.15,2013-03-04 03:20:00,
2013-03-03 22:30:00,42.0,33.3,30.15,WNW,285,0.0,0.0,71,0.00,,,0.00,Wunderground v.1.15,2013-03-04 03:30:00,
2013-03-03 22:40:00,42.0,32.9,30.15,SE,136,0.0,0.0,70,0.00,,,0.00,Wunderground v.1.15,2013-03-04 03:40:00,
2013-03-03 22:46:00,42.0,33.3,30.15,WSW,256,0.0,0.0,71,0.00,,,0.00,Wunderground v.1.15,2013-03-04 03:46:00,
2013-03-03 22:55:00,41.9,32.8,30.15,WSW,256,0.0,0.0,70,0.00,,,0.00,Wunderground v.1.15,2013-03-04 03:55:00,
2013-03-03 23:01:00,41.8,32.4,30.15,West,263,0.0,0.0,69,0.00,,,0.00,Wunderground v.1.15,2013-03-04 04:01:00,
2013-03-03 23:10:00,41.8,32.4,30.15,West,263,0.0,0.0,69,0.00,,,0.00,Wunderground v.1.15,2013-03-04 04:10:00,
2013-03-03 23:20:00,41.7,31.9,30.15,West,266,0.0,0.0,68,0.00,,,0.00,Wunderground v.1.15,2013-03-04 04:20:00,
2013-03-03 23:31:00,41.5,32.1,30.15,West,266,0.0,0.0,69,0.00,,,0.00,Wunderground v.1.15,2013-03-04 04:31:00,
2013-03-03 23:41:00,41.3,32.2,30.15,West,266,0.0,0.0,70,0.00,,,0.00,Wunderground v.1.15,2013-03-04 04:41:00,
2013-03-03 23:50:00,41.0,32.7,30.15,West,266,0.0,0.0,72,0.00,,,0.00,Wunderground v.1.15,2013-03-04 04:50:00,